createdAt,value
2023-02-25T00:02:26.158Z,87.40
2023-02-25T00:04:56.378Z,87.51
2023-02-25T00:07:28.656Z,87.57
2023-02-25T00:10:01.904Z,87.32
2023-02-25T00:12:33.119Z,87.49
2023-02-25T00:15:04.239Z,87.51
2023-02-25T00:17:35.606Z,87.48
2023-02-25T00:20:09.748Z,87.86
2023-02-25T00:22:41.082Z,88.18
2023-02-25T00:25:11.638Z,89.14
2023-02-25T00:27:42.160Z,89.48
2023-02-25T00:30:14.090Z,89.98
2023-02-25T00:32:45.294Z,90.35
2023-02-25T00:35:16.006Z,90.42
2023-02-25T00:37:54.337Z,90.68
2023-02-25T00:40:19.288Z,90.73
2023-02-25T00:42:50.371Z,90.89
2023-02-25T00:45:20.869Z,90.93
2023-02-25T00:47:51.419Z,90.95
2023-02-25T00:50:23.850Z,90.90
2023-02-25T00:52:54.625Z,90.94
2023-02-25T00:55:25.565Z,90.92
2023-02-25T00:57:57.183Z,90.91
2023-02-25T01:00:28.507Z,90.91
2023-02-25T01:03:00.949Z,90.88
2023-02-25T01:05:31.542Z,90.75
2023-02-25T01:08:05.343Z,90.61
2023-02-25T01:10:35.946Z,90.47
2023-02-25T01:13:07.572Z,90.43
2023-02-25T01:15:39.778Z,90.37
2023-02-25T01:18:13.310Z,90.35
2023-02-25T01:20:46.359Z,90.34
2023-02-25T01:23:17.203Z,90.23
2023-02-25T01:25:47.718Z,90.20
2023-02-25T01:28:24.392Z,90.31
2023-02-25T01:30:58.291Z,90.24
2023-02-25T01:33:29.152Z,90.00
2023-02-25T01:36:04.803Z,89.97
2023-02-25T01:38:35.959Z,89.73
2023-02-25T01:41:06.608Z,89.69
2023-02-25T01:43:39.043Z,89.67
2023-02-25T01:46:09.930Z,89.65
2023-02-25T01:48:43.038Z,89.60
2023-02-25T01:51:15.257Z,89.64
2023-02-25T01:53:49.155Z,89.74
2023-02-25T01:56:24.557Z,89.57
2023-02-25T01:58:57.317Z,89.49
2023-02-25T02:01:31.190Z,89.45
2023-02-25T02:04:04.842Z,89.28
2023-02-25T02:06:50.015Z,89.08
2023-02-25T02:09:17.484Z,89.21
2023-02-25T02:11:48.086Z,88.91
2023-02-25T02:14:21.816Z,88.87
2023-02-25T02:17:05.809Z,88.16
2023-02-25T02:19:53.263Z,87.94
2023-02-25T02:22:32.202Z,87.94
2023-02-25T02:25:24.056Z,87.85
2023-02-25T02:28:00.737Z,87.68
2023-02-25T02:30:49.242Z,87.46
2023-02-25T02:33:25.069Z,87.38
2023-02-25T02:36:12.089Z,87.35
2023-02-25T02:38:54.424Z,87.36
2023-02-25T02:41:38.472Z,87.11
2023-02-25T02:44:18.175Z,87.32
2023-02-25T02:46:55.771Z,87.30
2023-02-25T02:49:43.880Z,87.17
2023-02-25T02:52:18.506Z,87.23
2023-02-25T02:54:52.084Z,87.28
2023-02-25T02:57:24.763Z,87.10
2023-02-25T03:00:04.372Z,87.41
2023-02-25T03:02:37.820Z,87.68
2023-02-25T03:05:12.880Z,88.20
2023-02-25T03:07:46.679Z,88.22
2023-02-25T03:10:20.393Z,88.21
2023-02-25T03:12:52.656Z,88.31
2023-02-25T03:15:25.896Z,88.49
2023-02-25T03:18:00.108Z,88.15
2023-02-25T03:20:40.543Z,88.13
2023-02-25T03:23:15.106Z,88.05
2023-02-25T03:25:58.124Z,87.98
2023-02-25T03:28:31.679Z,88.05
2023-02-25T03:31:09.820Z,88.01
2023-02-25T03:33:49.336Z,88.13
2023-02-25T03:36:27.178Z,88.22
2023-02-25T03:39:01.321Z,88.05
2023-02-25T03:41:35.475Z,88.23
2023-02-25T03:44:09.488Z,88.02
2023-02-25T03:46:42.647Z,87.96
2023-02-25T03:49:20.097Z,87.79
2023-02-25T03:51:53.305Z,87.66
2023-02-25T03:54:25.628Z,87.86
2023-02-25T03:56:59.110Z,87.83
2023-02-25T03:59:29.761Z,87.61
2023-02-25T04:02:02.215Z,87.30
2023-02-25T04:04:32.834Z,87.30
2023-02-25T04:07:03.993Z,87.38
2023-02-25T04:09:35.620Z,87.39
2023-02-25T04:12:09.606Z,87.12
2023-02-25T04:14:40.162Z,87.13
2023-02-25T04:17:15.846Z,86.95
2023-02-25T04:19:50.253Z,87.25
2023-02-25T04:22:23.795Z,87.15
2023-02-25T04:24:55.798Z,87.55
2023-02-25T04:27:30.085Z,87.82
2023-02-25T04:30:04.215Z,87.91
2023-02-25T04:32:36.672Z,87.93
2023-02-25T04:35:09.812Z,88.07
2023-02-25T04:37:43.627Z,88.12
2023-02-25T04:40:17.636Z,88.11
2023-02-25T04:42:49.087Z,88.11
2023-02-25T04:45:21.632Z,87.94
2023-02-25T04:47:54.247Z,88.10
2023-02-25T04:50:25.586Z,88.08
2023-02-25T04:52:58.339Z,88.36
2023-02-25T04:55:30.140Z,88.37
2023-02-25T04:58:01.820Z,88.58
2023-02-25T05:00:32.286Z,88.59
2023-02-25T05:03:02.636Z,88.75
2023-02-25T05:05:34.678Z,88.59
2023-02-25T05:08:05.196Z,88.51
2023-02-25T05:10:35.806Z,88.42
2023-02-25T05:13:06.622Z,88.30
2023-02-25T05:15:37.705Z,88.17
2023-02-25T05:18:08.134Z,88.24
2023-02-25T05:20:44.423Z,87.98
2023-02-25T05:23:17.063Z,87.74
2023-02-25T05:25:47.924Z,87.25
2023-02-25T05:28:21.295Z,87.25
2023-02-25T05:30:53.093Z,86.86
2023-02-25T05:33:27.186Z,86.93
2023-02-25T05:35:57.920Z,87.16
2023-02-25T05:38:29.516Z,87.34
2023-02-25T05:41:03.845Z,87.04
2023-02-25T05:43:36.001Z,87.33
2023-02-25T05:46:09.431Z,87.46
2023-02-25T05:48:44.192Z,87.67
2023-02-25T05:51:18.263Z,87.74
2023-02-25T05:53:52.691Z,87.93
2023-02-25T05:56:29.505Z,87.87
2023-02-25T05:59:01.245Z,88.06
2023-02-25T06:01:32.514Z,88.36
2023-02-25T06:04:03.267Z,88.31
2023-02-25T06:06:34.283Z,88.26
2023-02-25T06:09:10.305Z,88.46
2023-02-25T06:11:42.914Z,88.75
2023-02-25T06:14:15.654Z,88.86
2023-02-25T06:16:46.215Z,88.97
2023-02-25T06:19:17.410Z,89.02
2023-02-25T06:21:49.438Z,89.08
2023-02-25T06:24:25.049Z,89.04
2023-02-25T06:26:56.034Z,88.94
2023-02-25T06:29:28.012Z,89.05
2023-02-25T06:32:02.627Z,89.16
2023-02-25T06:34:35.695Z,89.31
2023-02-25T06:37:08.066Z,89.12
2023-02-25T06:39:42.918Z,89.07
2023-02-25T06:42:17.085Z,89.08
2023-02-25T06:44:47.964Z,89.10
2023-02-25T06:47:18.543Z,89.28
2023-02-25T06:49:49.280Z,89.45
2023-02-25T06:52:20.967Z,89.32
2023-02-25T06:54:54.363Z,89.27
2023-02-25T06:57:28.592Z,89.30
2023-02-25T07:00:02.826Z,89.39
2023-02-25T07:02:32.310Z,89.44
2023-02-25T07:05:03.105Z,89.28
2023-02-25T07:07:35.850Z,89.21
2023-02-25T07:10:12.359Z,88.95
2023-02-25T07:12:42.917Z,89.09
2023-02-25T07:15:14.995Z,89.19
2023-02-25T07:17:45.657Z,89.12
2023-02-25T07:20:20.522Z,89.02
2023-02-25T07:22:50.412Z,89.10
2023-02-25T07:25:21.786Z,88.92
2023-02-25T07:27:54.445Z,88.83
2023-02-25T07:30:25.280Z,88.76
2023-02-25T07:33:01.127Z,88.53
2023-02-25T07:35:34.930Z,88.69
2023-02-25T07:38:11.849Z,88.75
2023-02-25T07:40:42.492Z,88.54
2023-02-25T07:43:14.769Z,88.44
2023-02-25T07:45:47.373Z,88.44
2023-02-25T07:48:18.434Z,88.44
2023-02-25T07:50:48.982Z,88.57
2023-02-25T07:53:21.172Z,88.63
2023-02-25T07:55:51.972Z,88.41
2023-02-25T07:58:22.760Z,88.55
2023-02-25T08:00:54.370Z,88.40
2023-02-25T08:03:28.576Z,88.55
2023-02-25T08:06:00.721Z,88.34
2023-02-25T08:08:31.582Z,88.35
2023-02-25T08:11:09.122Z,87.85
2023-02-25T08:13:42.356Z,87.91
2023-02-25T08:16:15.820Z,87.85
2023-02-25T08:18:51.426Z,87.86
2023-02-25T08:21:25.390Z,87.60
2023-02-25T08:23:56.711Z,87.82
2023-02-25T08:26:28.789Z,87.81
2023-02-25T08:29:00.153Z,87.79
2023-02-25T08:31:33.712Z,87.16
2023-02-25T08:34:04.733Z,87.45
2023-02-25T08:36:37.028Z,87.30
2023-02-25T08:39:09.538Z,87.26
2023-02-25T08:41:45.646Z,87.34
2023-02-25T08:44:16.175Z,87.50
2023-02-25T08:46:47.495Z,87.56
2023-02-25T08:49:18.051Z,87.45
2023-02-25T08:51:54.784Z,87.70
2023-02-25T08:54:25.524Z,87.84
2023-02-25T08:56:59.668Z,87.70
2023-02-25T08:59:32.475Z,87.47
2023-02-25T09:02:14.725Z,87.03
2023-02-25T09:04:45.338Z,87.24
2023-02-25T09:07:20.275Z,87.41
2023-02-25T09:09:55.117Z,87.59
2023-02-25T09:12:30.682Z,87.21
2023-02-25T09:15:02.328Z,86.81
2023-02-25T09:17:34.438Z,86.44
2023-02-25T09:20:10.794Z,86.29
2023-02-25T09:22:41.681Z,86.48
2023-02-25T09:25:14.317Z,85.92
2023-02-25T09:27:46.820Z,85.59
2023-02-25T09:30:17.455Z,85.15
2023-02-25T09:32:48.165Z,84.90
2023-02-25T09:35:20.285Z,84.60
2023-02-25T09:37:50.843Z,84.49
2023-02-25T09:40:24.385Z,84.30
2023-02-25T09:43:18.338Z,84.80
2023-02-25T09:45:53.326Z,84.87
2023-02-25T09:48:28.215Z,85.47
2023-02-25T09:51:07.726Z,85.50
2023-02-25T09:53:45.159Z,84.88
2023-02-25T09:56:18.311Z,83.99
2023-02-25T09:58:52.361Z,84.39
2023-02-25T10:01:29.169Z,83.72
2023-02-25T10:04:06.152Z,82.77
2023-02-25T10:06:44.292Z,83.38
2023-02-25T10:09:44.470Z,84.63
2023-02-25T10:12:26.990Z,85.54
2023-02-25T10:15:25.212Z,86.35
2023-02-25T10:18:18.850Z,87.16
2023-02-25T10:21:23.231Z,88.14
2023-02-25T10:24:06.093Z,91.62
2023-02-25T10:26:39.643Z,92.19
2023-02-25T10:29:15.942Z,92.28
2023-02-25T10:31:50.636Z,92.19
2023-02-25T10:34:26.157Z,92.05
2023-02-25T10:36:59.500Z,91.81
2023-02-25T10:39:31.561Z,91.71
2023-02-25T10:42:03.216Z,91.36
2023-02-25T10:44:35.448Z,90.80
2023-02-25T10:47:10.831Z,90.36
2023-02-25T10:49:41.323Z,89.66
2023-02-25T10:52:23.082Z,88.36
2023-02-25T10:54:56.857Z,87.07
2023-02-25T10:57:36.785Z,85.29
2023-02-25T11:00:12.469Z,85.07
2023-02-25T11:02:45.096Z,84.99
2023-02-25T11:05:41.886Z,85.33
2023-02-25T11:08:32.685Z,85.96
2023-02-25T11:11:21.792Z,86.74
2023-02-25T11:14:05.369Z,87.28
2023-02-25T11:16:39.530Z,87.42
2023-02-25T11:19:29.707Z,87.67
2023-02-25T11:22:02.588Z,87.90
2023-02-25T11:24:35.681Z,87.95
2023-02-25T11:27:09.134Z,87.13
2023-02-25T11:29:43.598Z,85.81
2023-02-25T11:32:22.923Z,86.02
2023-02-25T11:34:56.404Z,86.46
2023-02-25T11:37:40.774Z,87.01
2023-02-25T11:40:34.397Z,86.68
2023-02-25T11:43:08.321Z,86.67
2023-02-25T11:46:03.094Z,85.59
2023-02-25T11:48:51.102Z,85.62
2023-02-25T11:51:45.576Z,85.44
2023-02-25T11:54:36.271Z,84.90
2023-02-25T11:57:31.078Z,82.68
2023-02-25T12:00:25.982Z,82.82
2023-02-25T12:03:14.974Z,82.37
2023-02-25T12:05:57.689Z,82.95
2023-02-25T12:08:57.981Z,82.90
2023-02-25T12:11:55.310Z,83.92
2023-02-25T12:14:29.116Z,84.89
2023-02-25T12:17:14.933Z,83.71
2023-02-25T12:19:53.978Z,83.59
2023-02-25T12:22:50.021Z,83.11
2023-02-25T12:25:45.793Z,83.45
2023-02-25T12:28:49.796Z,83.42
2023-02-25T12:31:57.091Z,85.55
2023-02-25T12:34:40.500Z,86.82
2023-02-25T12:37:41.816Z,87.32
2023-02-25T12:40:29.312Z,86.99
2023-02-25T12:43:19.470Z,86.77
2023-02-25T12:45:56.901Z,86.83
2023-02-25T12:48:55.245Z,86.77
2023-02-25T12:51:54.670Z,87.21
2023-02-25T12:54:48.475Z,86.52
2023-02-25T12:57:38.309Z,86.61
2023-02-25T13:00:28.575Z,86.00
2023-02-25T13:03:19.174Z,85.89
2023-02-25T13:06:10.147Z,86.57
2023-02-25T13:08:54.179Z,87.29
2023-02-25T13:12:10.472Z,87.50
2023-02-25T13:14:40.577Z,87.23
2023-02-25T13:17:20.750Z,87.31
2023-02-25T13:20:15.064Z,87.18
2023-02-25T13:23:11.116Z,86.72
2023-02-25T13:26:03.792Z,86.09
2023-02-25T13:28:58.384Z,85.84
2023-02-25T13:31:44.013Z,85.81
2023-02-25T13:34:21.128Z,85.16
2023-02-25T13:37:15.325Z,85.41
2023-02-25T13:39:51.643Z,85.41
2023-02-25T13:42:35.560Z,85.31
2023-02-25T13:45:43.996Z,85.03
2023-02-25T13:48:53.595Z,85.43
2023-02-25T13:51:32.675Z,84.66
2023-02-25T13:54:31.548Z,85.21
2023-02-25T13:57:31.940Z,85.40
2023-02-25T14:00:30.016Z,86.39
2023-02-25T14:03:40.092Z,87.04
2023-02-25T14:06:36.159Z,87.38
2023-02-25T14:09:19.576Z,86.83
2023-02-25T14:12:13.365Z,85.63
2023-02-25T14:15:08.225Z,84.85
2023-02-25T14:17:52.808Z,84.05
2023-02-25T14:20:54.850Z,83.78
2023-02-25T14:23:49.066Z,83.66
2023-02-25T14:26:41.751Z,82.83
2023-02-25T14:29:23.361Z,82.90
2023-02-25T14:32:15.329Z,82.88
2023-02-25T14:35:02.551Z,82.54
2023-02-25T14:38:05.334Z,81.95
2023-02-25T14:40:46.980Z,82.13
2023-02-25T14:43:37.732Z,81.47
2023-02-25T14:46:22.164Z,81.60
2023-02-25T14:49:12.347Z,81.38
2023-02-25T14:52:03.590Z,81.25
2023-02-25T14:54:58.335Z,80.60
2023-02-25T14:58:06.827Z,80.14
2023-02-25T15:01:07.799Z,78.74
2023-02-25T15:04:04.643Z,77.21
2023-02-25T15:06:47.821Z,76.45
2023-02-25T15:09:41.309Z,75.31
2023-02-25T15:12:25.243Z,75.70
2023-02-25T15:15:30.993Z,75.80
2023-02-25T15:18:19.281Z,74.90
2023-02-25T15:20:51.959Z,74.41
2023-02-25T15:23:27.276Z,74.61
2023-02-25T15:26:22.272Z,74.47
2023-02-25T15:28:58.921Z,74.36
2023-02-25T15:31:33.285Z,74.26
2023-02-25T15:34:25.692Z,74.62
2023-02-25T15:37:00.180Z,74.77
2023-02-25T15:39:46.772Z,74.99
2023-02-25T15:42:42.499Z,75.09
2023-02-25T15:45:33.142Z,75.00
2023-02-25T15:48:17.124Z,74.44
2023-02-25T15:50:53.558Z,74.43
2023-02-25T15:53:28.252Z,75.41
2023-02-25T15:56:10.523Z,78.42
2023-02-25T15:59:02.285Z,81.33
2023-02-25T16:01:43.043Z,83.46
2023-02-25T16:04:47.821Z,84.83
2023-02-25T16:07:26.823Z,85.59
2023-02-25T16:10:02.563Z,85.83
2023-02-25T16:12:34.080Z,85.46
2023-02-25T16:15:06.448Z,85.57
2023-02-25T16:17:38.798Z,85.48
2023-02-25T16:20:29.482Z,85.60
2023-02-25T16:23:03.207Z,85.16
2023-02-25T16:25:51.547Z,85.25
2023-02-25T16:28:44.730Z,85.27
2023-02-25T16:31:19.458Z,85.49
2023-02-25T16:34:00.885Z,85.52
2023-02-25T16:36:52.481Z,85.27
2023-02-25T16:39:25.716Z,84.54
2023-02-25T16:42:05.230Z,84.34
2023-02-25T16:44:39.376Z,84.24
2023-02-25T16:47:28.872Z,84.16
2023-02-25T16:50:08.220Z,83.96
2023-02-25T16:52:45.259Z,84.18
2023-02-25T16:55:33.047Z,84.17
2023-02-25T16:58:08.446Z,83.67
2023-02-25T17:00:42.488Z,83.48
2023-02-25T17:03:16.525Z,83.71
2023-02-25T17:05:56.135Z,83.78
2023-02-25T17:08:28.461Z,83.92
2023-02-25T17:11:01.666Z,84.16
2023-02-25T17:13:38.353Z,84.49
2023-02-25T17:16:14.793Z,84.62
2023-02-25T17:18:51.181Z,84.64
2023-02-25T17:21:28.574Z,84.98
2023-02-25T17:24:04.579Z,85.01
2023-02-25T17:26:38.541Z,84.12
2023-02-25T17:29:13.047Z,84.10
2023-02-25T17:31:47.087Z,83.02
2023-02-25T17:34:30.406Z,82.67
2023-02-25T17:37:05.669Z,82.58
2023-02-25T17:39:39.136Z,82.02
2023-02-25T17:42:35.729Z,82.38
2023-02-25T17:45:10.096Z,82.53
2023-02-25T17:47:45.414Z,82.69
2023-02-25T17:50:27.939Z,82.91
2023-02-25T17:53:02.325Z,83.29
2023-02-25T17:55:38.985Z,83.88
2023-02-25T17:58:14.034Z,84.34
2023-02-25T18:00:50.475Z,84.75
2023-02-25T18:03:26.460Z,85.20
2023-02-25T18:06:03.460Z,85.80
2023-02-25T18:08:54.907Z,86.13
2023-02-25T18:11:35.480Z,86.46
2023-02-25T18:14:41.406Z,86.67
2023-02-25T18:17:22.075Z,87.16
2023-02-25T18:19:55.474Z,87.38
2023-02-25T18:22:32.299Z,87.34
2023-02-25T18:25:07.125Z,87.75
2023-02-25T18:27:37.923Z,87.91
2023-02-25T18:30:20.486Z,87.64
2023-02-25T18:32:51.811Z,87.46
2023-02-25T18:35:22.939Z,87.59
2023-02-25T18:37:58.657Z,87.25
2023-02-25T18:40:36.206Z,87.28
2023-02-25T18:43:07.598Z,87.22
2023-02-25T18:45:39.374Z,86.78
2023-02-25T18:48:10.571Z,86.73
2023-02-25T18:50:44.673Z,86.76
2023-02-25T18:53:18.088Z,86.95
2023-02-25T18:55:54.460Z,86.59
2023-02-25T18:58:26.162Z,86.66
2023-02-25T19:00:59.588Z,86.38
2023-02-25T19:03:34.055Z,86.42
2023-02-25T19:06:04.824Z,85.96
2023-02-25T19:08:35.880Z,85.69
2023-02-25T19:11:07.289Z,85.38
2023-02-25T19:13:42.882Z,84.98
2023-02-25T19:16:13.542Z,84.76
2023-02-25T19:18:44.742Z,84.91
2023-02-25T19:21:18.171Z,84.89
2023-02-25T19:23:53.726Z,84.24
2023-02-25T19:26:25.252Z,84.24
2023-02-25T19:28:56.178Z,84.03
2023-02-25T19:31:27.225Z,84.07
2023-02-25T19:33:59.276Z,84.07
2023-02-25T19:36:29.801Z,83.68
2023-02-25T19:39:01.783Z,83.49
2023-02-25T19:41:38.582Z,83.24
2023-02-25T19:44:11.695Z,83.26
2023-02-25T19:46:45.220Z,83.36
2023-02-25T19:49:18.500Z,82.87
2023-02-25T19:51:52.817Z,82.91
2023-02-25T19:54:26.317Z,82.96
2023-02-25T19:56:56.945Z,83.00
2023-02-25T19:59:30.577Z,82.99
2023-02-25T20:02:02.550Z,83.33
2023-02-25T20:04:35.824Z,83.29
2023-02-25T20:07:06.693Z,82.94
2023-02-25T20:09:39.156Z,83.21
2023-02-25T20:12:12.328Z,83.32
2023-02-25T20:14:44.294Z,83.61
2023-02-25T20:17:16.331Z,83.64
2023-02-25T20:19:48.902Z,83.66
2023-02-25T20:22:21.356Z,83.58
2023-02-25T20:24:55.952Z,83.39
2023-02-25T20:27:28.895Z,83.49
2023-02-25T20:30:01.078Z,83.68
2023-02-25T20:32:32.783Z,83.78
2023-02-25T20:35:06.372Z,84.08
2023-02-25T20:37:39.874Z,84.36
2023-02-25T20:40:12.476Z,84.51
2023-02-25T20:42:43.158Z,84.91
2023-02-25T20:45:16.471Z,85.11
2023-02-25T20:47:47.361Z,85.52
2023-02-25T20:50:20.958Z,85.77
2023-02-25T20:52:52.049Z,85.91
2023-02-25T20:55:22.799Z,85.86
2023-02-25T20:57:55.646Z,86.25
2023-02-25T21:00:27.826Z,86.41
2023-02-25T21:02:59.901Z,86.78
2023-02-25T21:05:32.066Z,87.03
2023-02-25T21:08:02.467Z,87.03
2023-02-25T21:10:35.714Z,87.16
2023-02-25T21:13:07.553Z,87.21
2023-02-25T21:15:38.671Z,86.98
2023-02-25T21:18:12.179Z,86.91
2023-02-25T21:20:45.148Z,87.16
2023-02-25T21:23:16.990Z,87.47
2023-02-25T21:25:47.748Z,87.76
2023-02-25T21:28:18.538Z,88.00
2023-02-25T21:30:49.959Z,88.19
2023-02-25T21:33:21.640Z,88.40
2023-02-25T21:35:55.916Z,88.64
2023-02-25T21:38:32.567Z,88.82
2023-02-25T21:41:16.183Z,89.02
2023-02-25T21:43:53.847Z,89.12
2023-02-25T21:46:27.748Z,88.97
2023-02-25T21:49:00.938Z,88.96
2023-02-25T21:51:31.957Z,88.92
2023-02-25T21:54:03.252Z,89.08
2023-02-25T21:56:35.340Z,89.23
2023-02-25T21:59:07.610Z,89.30
2023-02-25T22:01:42.738Z,89.44
2023-02-25T22:04:14.948Z,89.54
2023-02-25T22:06:47.566Z,89.56
2023-02-25T22:09:20.071Z,89.52
2023-02-25T22:11:51.804Z,89.51
2023-02-25T22:14:24.144Z,89.46
2023-02-25T22:16:55.425Z,89.37
2023-02-25T22:19:26.466Z,89.39
2023-02-25T22:21:56.889Z,89.69
2023-02-25T22:24:30.317Z,89.21
2023-02-25T22:27:01.260Z,88.74
2023-02-25T22:29:34.626Z,88.63
2023-02-25T22:32:05.440Z,88.92
2023-02-25T22:34:36.201Z,89.14
2023-02-25T22:37:07.038Z,89.29
2023-02-25T22:39:42.563Z,89.34
2023-02-25T22:42:14.601Z,89.31
2023-02-25T22:44:48.538Z,89.44
2023-02-25T22:47:23.100Z,89.51
2023-02-25T22:49:55.350Z,89.38
2023-02-25T22:52:27.111Z,89.41
2023-02-25T22:55:00.908Z,89.42
2023-02-25T22:57:33.428Z,89.48
2023-02-25T23:00:08.454Z,89.52
2023-02-25T23:02:39.854Z,89.48
2023-02-25T23:05:12.454Z,89.47
2023-02-25T23:07:43.594Z,89.55
2023-02-25T23:10:14.844Z,89.64
2023-02-25T23:12:46.202Z,89.58
2023-02-25T23:15:20.393Z,89.47
2023-02-25T23:17:51.650Z,89.31
2023-02-25T23:20:24.459Z,89.21
2023-02-25T23:22:56.533Z,89.13
2023-02-25T23:25:27.849Z,89.11
2023-02-25T23:27:59.532Z,89.06
2023-02-25T23:30:30.023Z,88.94
2023-02-25T23:33:01.061Z,88.64
2023-02-25T23:35:32.781Z,88.58
2023-02-25T23:38:03.590Z,88.31
2023-02-25T23:40:34.424Z,88.17
2023-02-25T23:43:05.523Z,87.94
2023-02-25T23:45:36.005Z,87.90
2023-02-25T23:48:06.950Z,87.77
2023-02-25T23:50:38.281Z,87.66
2023-02-25T23:53:10.251Z,87.62
2023-02-25T23:55:41.015Z,87.53
2023-02-25T23:58:11.798Z,87.57
